sensor_id;sensor_type;location;lat;lon;timestamp;P1;durP1;ratioP1;P2;durP2;ratioP2
59504;SDS011;45321;53.200;5.814;2023-06-10T00:00:45;24.13;;;14.73;;
59504;SDS011;45321;53.200;5.814;2023-06-10T00:03:11;18.92;;;12.60;;
59504;SDS011;45321;53.200;5.814;2023-06-10T00:05:41;19.45;;;11.18;;
59504;SDS011;45321;53.200;5.814;2023-06-10T00:08:07;17.25;;;9.85;;
59504;SDS011;45321;53.200;5.814;2023-06-10T00:10:36;15.40;;;10.73;;
59504;SDS011;45321;53.200;5.814;2023-06-10T00:13:06;18.33;;;12.02;;
59504;SDS011;45321;53.200;5.814;2023-06-10T00:15:36;17.73;;;13.38;;
59504;SDS011;45321;53.200;5.814;2023-06-10T00:18:02;13.95;;;8.88;;
59504;SDS011;45321;53.200;5.814;2023-06-10T00:20:29;19.23;;;10.93;;
59504;SDS011;45321;53.200;5.814;2023-06-10T00:22:55;19.70;;;14.45;;
59504;SDS011;45321;53.200;5.814;2023-06-10T00:25:24;16.60;;;12.30;;
59504;SDS011;45321;53.200;5.814;2023-06-10T00:27:51;19.92;;;12.60;;
59504;SDS011;45321;53.200;5.814;2023-06-10T00:30:16;18.10;;;12.18;;
59504;SDS011;45321;53.200;5.814;2023-06-10T00:32:42;20.98;;;15.13;;
59504;SDS011;45321;53.200;5.814;2023-06-10T00:35:08;25.75;;;16.45;;
59504;SDS011;45321;53.200;5.814;2023-06-10T00:37:34;24.00;;;18.48;;
59504;SDS011;45321;53.200;5.814;2023-06-10T00:40:02;25.38;;;16.02;;
59504;SDS011;45321;53.200;5.814;2023-06-10T00:42:28;20.52;;;13.70;;
59504;SDS011;45321;53.200;5.814;2023-06-10T00:44:54;22.55;;;15.77;;
59504;SDS011;45321;53.200;5.814;2023-06-10T00:47:23;20.65;;;15.05;;
59504;SDS011;45321;53.200;5.814;2023-06-10T00:49:50;20.38;;;14.95;;
59504;SDS011;45321;53.200;5.814;2023-06-10T00:52:16;21.38;;;15.80;;
59504;SDS011;45321;53.200;5.814;2023-06-10T00:54:43;22.83;;;15.68;;
59504;SDS011;45321;53.200;5.814;2023-06-10T00:57:09;15.93;;;10.45;;
59504;SDS011;45321;53.200;5.814;2023-06-10T00:59:36;20.35;;;14.40;;
59504;SDS011;45321;53.200;5.814;2023-06-10T01:02:03;21.60;;;14.82;;
59504;SDS011;45321;53.200;5.814;2023-06-10T01:04:29;20.75;;;13.98;;
59504;SDS011;45321;53.200;5.814;2023-06-10T01:15:06;19.98;;;15.77;;
59504;SDS011;45321;53.200;5.814;2023-06-10T01:17:33;17.33;;;11.85;;
59504;SDS011;45321;53.200;5.814;2023-06-10T01:20:02;13.02;;;8.35;;
59504;SDS011;45321;53.200;5.814;2023-06-10T01:22:28;15.35;;;9.77;;
59504;SDS011;45321;53.200;5.814;2023-06-10T01:24:57;23.88;;;16.27;;
59504;SDS011;45321;53.200;5.814;2023-06-10T01:27:26;23.38;;;14.60;;
59504;SDS011;45321;53.200;5.814;2023-06-10T01:29:55;26.27;;;17.40;;
59504;SDS011;45321;53.200;5.814;2023-06-10T01:32:37;21.90;;;16.02;;
59504;SDS011;45321;53.200;5.814;2023-06-10T01:35:05;26.23;;;18.85;;
59504;SDS011;45321;53.200;5.814;2023-06-10T01:37:33;21.30;;;15.57;;
59504;SDS011;45321;53.200;5.814;2023-06-10T01:40:01;17.95;;;13.35;;
59504;SDS011;45321;53.200;5.814;2023-06-10T01:42:31;11.98;;;9.35;;
59504;SDS011;45321;53.200;5.814;2023-06-10T01:44:58;17.92;;;12.43;;
59504;SDS011;45321;53.200;5.814;2023-06-10T01:47:24;22.83;;;12.93;;
59504;SDS011;45321;53.200;5.814;2023-06-10T01:49:50;24.17;;;16.58;;
59504;SDS011;45321;53.200;5.814;2023-06-10T01:52:15;22.10;;;15.32;;
59504;SDS011;45321;53.200;5.814;2023-06-10T01:54:41;24.85;;;18.63;;
59504;SDS011;45321;53.200;5.814;2023-06-10T01:57:07;26.25;;;18.33;;
59504;SDS011;45321;53.200;5.814;2023-06-10T01:59:33;19.65;;;12.98;;
59504;SDS011;45321;53.200;5.814;2023-06-10T02:01:59;21.02;;;14.23;;
59504;SDS011;45321;53.200;5.814;2023-06-10T02:04:24;22.33;;;12.88;;
59504;SDS011;45321;53.200;5.814;2023-06-10T02:06:50;25.20;;;17.50;;
59504;SDS011;45321;53.200;5.814;2023-06-10T02:09:16;23.65;;;16.70;;
59504;SDS011;45321;53.200;5.814;2023-06-10T02:11:43;24.95;;;17.05;;
59504;SDS011;45321;53.200;5.814;2023-06-10T02:14:09;22.92;;;17.08;;
59504;SDS011;45321;53.200;5.814;2023-06-10T02:16:35;27.27;;;17.92;;
59504;SDS011;45321;53.200;5.814;2023-06-10T02:19:01;19.60;;;15.00;;
59504;SDS011;45321;53.200;5.814;2023-06-10T02:21:28;17.80;;;10.82;;
59504;SDS011;45321;53.200;5.814;2023-06-10T02:23:53;15.10;;;8.50;;
59504;SDS011;45321;53.200;5.814;2023-06-10T02:26:19;11.48;;;6.78;;
59504;SDS011;45321;53.200;5.814;2023-06-10T02:28:46;11.38;;;7.15;;
59504;SDS011;45321;53.200;5.814;2023-06-10T02:31:12;10.95;;;6.65;;
59504;SDS011;45321;53.200;5.814;2023-06-10T02:33:38;10.68;;;7.53;;
59504;SDS011;45321;53.200;5.814;2023-06-10T02:36:05;13.20;;;9.90;;
59504;SDS011;45321;53.200;5.814;2023-06-10T02:38:31;16.35;;;10.90;;
59504;SDS011;45321;53.200;5.814;2023-06-10T02:40:57;21.38;;;15.13;;
59504;SDS011;45321;53.200;5.814;2023-06-10T02:43:23;19.20;;;13.63;;
59504;SDS011;45321;53.200;5.814;2023-06-10T02:45:48;17.83;;;13.20;;
59504;SDS011;45321;53.200;5.814;2023-06-10T02:48:14;24.08;;;16.27;;
59504;SDS011;45321;53.200;5.814;2023-06-10T02:50:40;20.58;;;14.73;;
59504;SDS011;45321;53.200;5.814;2023-06-10T02:53:06;24.85;;;16.48;;
59504;SDS011;45321;53.200;5.814;2023-06-10T02:55:31;25.77;;;18.90;;
59504;SDS011;45321;53.200;5.814;2023-06-10T02:57:57;26.27;;;16.67;;
59504;SDS011;45321;53.200;5.814;2023-06-10T03:00:24;18.65;;;13.30;;
59504;SDS011;45321;53.200;5.814;2023-06-10T03:02:50;19.85;;;13.88;;
59504;SDS011;45321;53.200;5.814;2023-06-10T03:05:15;20.05;;;14.60;;
59504;SDS011;45321;53.200;5.814;2023-06-10T03:07:42;26.02;;;17.27;;
59504;SDS011;45321;53.200;5.814;2023-06-10T03:10:07;20.17;;;14.80;;
59504;SDS011;45321;53.200;5.814;2023-06-10T03:12:33;20.08;;;15.20;;
59504;SDS011;45321;53.200;5.814;2023-06-10T03:14:59;23.35;;;13.98;;
59504;SDS011;45321;53.200;5.814;2023-06-10T03:17:25;18.90;;;12.07;;
59504;SDS011;45321;53.200;5.814;2023-06-10T03:19:51;19.38;;;13.90;;
59504;SDS011;45321;53.200;5.814;2023-06-10T03:22:17;19.30;;;13.98;;
59504;SDS011;45321;53.200;5.814;2023-06-10T03:24:43;17.67;;;12.07;;
59504;SDS011;45321;53.200;5.814;2023-06-10T03:27:11;13.93;;;10.63;;
59504;SDS011;45321;53.200;5.814;2023-06-10T03:29:38;18.88;;;12.13;;
59504;SDS011;45321;53.200;5.814;2023-06-10T03:32:04;14.50;;;10.40;;
59504;SDS011;45321;53.200;5.814;2023-06-10T03:34:30;15.73;;;10.90;;
59504;SDS011;45321;53.200;5.814;2023-06-10T03:36:56;21.20;;;13.13;;
59504;SDS011;45321;53.200;5.814;2023-06-10T03:39:23;22.75;;;15.52;;
59504;SDS011;45321;53.200;5.814;2023-06-10T03:41:49;16.80;;;12.32;;
59504;SDS011;45321;53.200;5.814;2023-06-10T03:44:15;17.00;;;11.93;;
59504;SDS011;45321;53.200;5.814;2023-06-10T03:46:41;18.52;;;11.43;;
59504;SDS011;45321;53.200;5.814;2023-06-10T03:49:07;15.07;;;10.88;;
59504;SDS011;45321;53.200;5.814;2023-06-10T03:51:35;18.52;;;13.05;;
59504;SDS011;45321;53.200;5.814;2023-06-10T03:54:01;18.55;;;11.20;;
59504;SDS011;45321;53.200;5.814;2023-06-10T03:56:27;14.85;;;11.20;;
59504;SDS011;45321;53.200;5.814;2023-06-10T03:58:53;18.88;;;12.10;;
59504;SDS011;45321;53.200;5.814;2023-06-10T04:01:20;14.20;;;11.32;;
59504;SDS011;45321;53.200;5.814;2023-06-10T04:03:46;18.92;;;11.57;;
59504;SDS011;45321;53.200;5.814;2023-06-10T04:06:14;17.65;;;12.38;;
59504;SDS011;45321;53.200;5.814;2023-06-10T04:08:41;19.17;;;12.68;;
59504;SDS011;45321;53.200;5.814;2023-06-10T04:11:08;15.35;;;10.82;;
59504;SDS011;45321;53.200;5.814;2023-06-10T04:13:34;14.38;;;10.13;;
59504;SDS011;45321;53.200;5.814;2023-06-10T04:15:59;17.38;;;10.88;;
59504;SDS011;45321;53.200;5.814;2023-06-10T04:18:26;22.30;;;12.55;;
59504;SDS011;45321;53.200;5.814;2023-06-10T04:20:51;17.60;;;12.27;;
59504;SDS011;45321;53.200;5.814;2023-06-10T04:23:17;15.00;;;11.13;;
59504;SDS011;45321;53.200;5.814;2023-06-10T04:25:43;18.92;;;11.85;;
59504;SDS011;45321;53.200;5.814;2023-06-10T04:28:09;20.33;;;13.73;;
59504;SDS011;45321;53.200;5.814;2023-06-10T04:30:34;19.52;;;12.18;;
59504;SDS011;45321;53.200;5.814;2023-06-10T04:33:00;18.08;;;10.85;;
59504;SDS011;45321;53.200;5.814;2023-06-10T04:35:26;16.70;;;10.98;;
59504;SDS011;45321;53.200;5.814;2023-06-10T04:37:52;20.27;;;12.82;;
59504;SDS011;45321;53.200;5.814;2023-06-10T04:40:19;17.55;;;11.30;;
59504;SDS011;45321;53.200;5.814;2023-06-10T04:42:44;16.13;;;11.35;;
59504;SDS011;45321;53.200;5.814;2023-06-10T04:45:10;18.60;;;11.90;;
59504;SDS011;45321;53.200;5.814;2023-06-10T04:47:36;22.67;;;12.60;;
59504;SDS011;45321;53.200;5.814;2023-06-10T04:50:02;15.60;;;10.38;;
59504;SDS011;45321;53.200;5.814;2023-06-10T04:52:30;16.15;;;10.82;;
59504;SDS011;45321;53.200;5.814;2023-06-10T04:54:57;16.33;;;9.50;;
59504;SDS011;45321;53.200;5.814;2023-06-10T04:57:23;20.02;;;12.00;;
59504;SDS011;45321;53.200;5.814;2023-06-10T04:59:49;16.63;;;11.13;;
59504;SDS011;45321;53.200;5.814;2023-06-10T05:02:14;19.02;;;12.05;;
59504;SDS011;45321;53.200;5.814;2023-06-10T05:04:40;13.27;;;8.88;;
59504;SDS011;45321;53.200;5.814;2023-06-10T05:07:06;16.58;;;10.45;;
59504;SDS011;45321;53.200;5.814;2023-06-10T05:09:32;15.48;;;9.48;;
59504;SDS011;45321;53.200;5.814;2023-06-10T05:11:58;16.90;;;10.90;;
59504;SDS011;45321;53.200;5.814;2023-06-10T05:14:24;16.33;;;10.90;;
59504;SDS011;45321;53.200;5.814;2023-06-10T05:16:49;16.17;;;9.13;;
59504;SDS011;45321;53.200;5.814;2023-06-10T05:19:15;18.15;;;11.10;;
59504;SDS011;45321;53.200;5.814;2023-06-10T05:21:41;18.98;;;10.60;;
59504;SDS011;45321;53.200;5.814;2023-06-10T05:24:07;17.17;;;11.60;;
59504;SDS011;45321;53.200;5.814;2023-06-10T05:26:33;17.40;;;11.07;;
59504;SDS011;45321;53.200;5.814;2023-06-10T05:29:02;19.02;;;11.77;;
59504;SDS011;45321;53.200;5.814;2023-06-10T05:31:29;17.50;;;11.45;;
59504;SDS011;45321;53.200;5.814;2023-06-10T05:33:55;16.88;;;11.32;;
59504;SDS011;45321;53.200;5.814;2023-06-10T05:36:21;15.88;;;11.27;;
59504;SDS011;45321;53.200;5.814;2023-06-10T05:38:46;17.60;;;11.23;;
59504;SDS011;45321;53.200;5.814;2023-06-10T05:41:12;15.82;;;10.95;;
59504;SDS011;45321;53.200;5.814;2023-06-10T05:43:38;13.75;;;9.10;;
59504;SDS011;45321;53.200;5.814;2023-06-10T05:46:04;15.50;;;10.95;;
59504;SDS011;45321;53.200;5.814;2023-06-10T05:48:30;18.83;;;12.68;;
59504;SDS011;45321;53.200;5.814;2023-06-10T05:50:58;17.48;;;10.20;;
59504;SDS011;45321;53.200;5.814;2023-06-10T05:53:25;18.60;;;11.80;;
59504;SDS011;45321;53.200;5.814;2023-06-10T05:55:51;16.25;;;11.68;;
59504;SDS011;45321;53.200;5.814;2023-06-10T05:58:19;15.68;;;9.15;;
59504;SDS011;45321;53.200;5.814;2023-06-10T06:00:45;14.68;;;7.95;;
59504;SDS011;45321;53.200;5.814;2023-06-10T06:03:11;13.88;;;8.52;;
59504;SDS011;45321;53.200;5.814;2023-06-10T06:05:37;14.68;;;8.43;;
59504;SDS011;45321;53.200;5.814;2023-06-10T06:08:09;15.50;;;7.55;;
59504;SDS011;45321;53.200;5.814;2023-06-10T06:10:35;17.20;;;9.45;;
59504;SDS011;45321;53.200;5.814;2023-06-10T06:13:01;16.23;;;10.52;;
59504;SDS011;45321;53.200;5.814;2023-06-10T06:15:27;12.48;;;8.32;;
59504;SDS011;45321;53.200;5.814;2023-06-10T06:17:53;13.95;;;7.82;;
59504;SDS011;45321;53.200;5.814;2023-06-10T06:20:19;17.23;;;11.60;;
59504;SDS011;45321;53.200;5.814;2023-06-10T06:22:45;14.48;;;10.93;;
59504;SDS011;45321;53.200;5.814;2023-06-10T06:25:11;14.65;;;9.73;;
59504;SDS011;45321;53.200;5.814;2023-06-10T06:27:37;18.08;;;11.57;;
59504;SDS011;45321;53.200;5.814;2023-06-10T06:30:02;14.05;;;7.75;;
59504;SDS011;45321;53.200;5.814;2023-06-10T06:32:29;11.90;;;7.55;;
59504;SDS011;45321;53.200;5.814;2023-06-10T06:34:54;14.48;;;10.07;;
59504;SDS011;45321;53.200;5.814;2023-06-10T06:37:24;15.30;;;10.23;;
59504;SDS011;45321;53.200;5.814;2023-06-10T06:39:53;15.70;;;8.75;;
59504;SDS011;45321;53.200;5.814;2023-06-10T06:42:22;18.35;;;11.77;;
59504;SDS011;45321;53.200;5.814;2023-06-10T06:44:47;15.32;;;10.02;;
59504;SDS011;45321;53.200;5.814;2023-06-10T06:47:13;14.55;;;9.63;;
59504;SDS011;45321;53.200;5.814;2023-06-10T06:49:39;13.25;;;8.45;;
59504;SDS011;45321;53.200;5.814;2023-06-10T06:52:05;22.60;;;12.82;;
59504;SDS011;45321;53.200;5.814;2023-06-10T06:54:31;15.52;;;10.23;;
59504;SDS011;45321;53.200;5.814;2023-06-10T06:56:57;19.75;;;11.93;;
59504;SDS011;45321;53.200;5.814;2023-06-10T06:59:23;13.32;;;7.22;;
59504;SDS011;45321;53.200;5.814;2023-06-10T07:01:50;17.27;;;7.32;;
59504;SDS011;45321;53.200;5.814;2023-06-10T07:04:16;11.30;;;6.75;;
59504;SDS011;45321;53.200;5.814;2023-06-10T07:06:42;10.57;;;5.70;;
59504;SDS011;45321;53.200;5.814;2023-06-10T07:09:08;13.25;;;7.45;;
59504;SDS011;45321;53.200;5.814;2023-06-10T07:11:34;11.90;;;6.75;;
59504;SDS011;45321;53.200;5.814;2023-06-10T07:14:00;15.93;;;6.95;;
59504;SDS011;45321;53.200;5.814;2023-06-10T07:16:25;10.77;;;6.60;;
59504;SDS011;45321;53.200;5.814;2023-06-10T07:18:52;8.15;;;5.40;;
59504;SDS011;45321;53.200;5.814;2023-06-10T07:21:18;10.00;;;5.03;;
59504;SDS011;45321;53.200;5.814;2023-06-10T07:23:44;12.75;;;5.20;;
59504;SDS011;45321;53.200;5.814;2023-06-10T07:26:11;9.00;;;4.97;;
59504;SDS011;45321;53.200;5.814;2023-06-10T07:28:41;10.32;;;5.00;;
59504;SDS011;45321;53.200;5.814;2023-06-10T07:31:07;10.50;;;4.88;;
59504;SDS011;45321;53.200;5.814;2023-06-10T07:33:33;12.43;;;5.03;;
59504;SDS011;45321;53.200;5.814;2023-06-10T07:35:59;12.43;;;7.22;;
59504;SDS011;45321;53.200;5.814;2023-06-10T07:38:25;11.80;;;6.32;;
59504;SDS011;45321;53.200;5.814;2023-06-10T07:40:51;11.45;;;6.70;;
59504;SDS011;45321;53.200;5.814;2023-06-10T07:43:17;7.18;;;5.22;;
59504;SDS011;45321;53.200;5.814;2023-06-10T07:45:43;10.77;;;5.90;;
59504;SDS011;45321;53.200;5.814;2023-06-10T07:48:10;12.30;;;6.05;;
59504;SDS011;45321;53.200;5.814;2023-06-10T07:50:36;8.63;;;5.70;;
59504;SDS011;45321;53.200;5.814;2023-06-10T07:53:02;8.38;;;5.25;;
59504;SDS011;45321;53.200;5.814;2023-06-10T07:55:28;10.10;;;5.82;;
59504;SDS011;45321;53.200;5.814;2023-06-10T07:57:54;10.10;;;6.97;;
59504;SDS011;45321;53.200;5.814;2023-06-10T08:00:20;15.32;;;7.20;;
59504;SDS011;45321;53.200;5.814;2023-06-10T08:02:46;9.73;;;5.20;;
59504;SDS011;45321;53.200;5.814;2023-06-10T08:05:12;10.40;;;4.97;;
59504;SDS011;45321;53.200;5.814;2023-06-10T08:07:41;10.38;;;4.82;;
59504;SDS011;45321;53.200;5.814;2023-06-10T08:10:07;8.73;;;5.15;;
59504;SDS011;45321;53.200;5.814;2023-06-10T08:12:33;8.23;;;4.85;;
59504;SDS011;45321;53.200;5.814;2023-06-10T08:15:00;11.25;;;5.30;;
59504;SDS011;45321;53.200;5.814;2023-06-10T08:17:26;10.10;;;6.07;;
59504;SDS011;45321;53.200;5.814;2023-06-10T08:19:52;10.77;;;6.18;;
59504;SDS011;45321;53.200;5.814;2023-06-10T08:22:18;11.82;;;8.93;;
59504;SDS011;45321;53.200;5.814;2023-06-10T08:24:44;12.98;;;8.48;;
59504;SDS011;45321;53.200;5.814;2023-06-10T08:27:10;8.38;;;5.20;;
59504;SDS011;45321;53.200;5.814;2023-06-10T08:29:35;8.48;;;4.25;;
59504;SDS011;45321;53.200;5.814;2023-06-10T08:32:01;8.57;;;5.05;;
59504;SDS011;45321;53.200;5.814;2023-06-10T08:34:27;7.72;;;4.43;;
59504;SDS011;45321;53.200;5.814;2023-06-10T08:36:53;9.35;;;4.90;;
59504;SDS011;45321;53.200;5.814;2023-06-10T08:39:21;9.73;;;4.90;;
59504;SDS011;45321;53.200;5.814;2023-06-10T08:44:39;11.88;;;6.28;;
59504;SDS011;45321;53.200;5.814;2023-06-10T08:47:12;9.38;;;5.60;;
59504;SDS011;45321;53.200;5.814;2023-06-10T08:49:41;7.40;;;4.70;;
59504;SDS011;45321;53.200;5.814;2023-06-10T08:52:09;9.90;;;7.10;;
59504;SDS011;45321;53.200;5.814;2023-06-10T08:54:41;11.63;;;6.22;;
59504;SDS011;45321;53.200;5.814;2023-06-10T08:57:16;7.68;;;5.38;;
59504;SDS011;45321;53.200;5.814;2023-06-10T08:59:45;7.25;;;4.32;;
59504;SDS011;45321;53.200;5.814;2023-06-10T09:02:12;8.25;;;4.75;;
59504;SDS011;45321;53.200;5.814;2023-06-10T09:04:41;9.45;;;5.13;;
59504;SDS011;45321;53.200;5.814;2023-06-10T09:07:09;10.07;;;4.40;;
59504;SDS011;45321;53.200;5.814;2023-06-10T09:09:35;10.63;;;4.70;;
59504;SDS011;45321;53.200;5.814;2023-06-10T09:12:02;8.63;;;4.63;;
59504;SDS011;45321;53.200;5.814;2023-06-10T09:14:28;7.43;;;4.57;;
59504;SDS011;45321;53.200;5.814;2023-06-10T09:16:54;11.20;;;4.82;;
59504;SDS011;45321;53.200;5.814;2023-06-10T09:19:23;5.25;;;4.15;;
59504;SDS011;45321;53.200;5.814;2023-06-10T09:21:52;6.75;;;4.22;;
59504;SDS011;45321;53.200;5.814;2023-06-10T09:24:17;8.55;;;4.88;;
59504;SDS011;45321;53.200;5.814;2023-06-10T09:26:43;10.88;;;4.68;;
59504;SDS011;45321;53.200;5.814;2023-06-10T09:29:10;8.23;;;5.35;;
59504;SDS011;45321;53.200;5.814;2023-06-10T09:31:37;10.65;;;7.57;;
59504;SDS011;45321;53.200;5.814;2023-06-10T09:34:24;10.05;;;6.97;;
59504;SDS011;45321;53.200;5.814;2023-06-10T09:36:50;11.93;;;9.57;;
59504;SDS011;45321;53.200;5.814;2023-06-10T09:39:17;8.32;;;5.22;;
59504;SDS011;45321;53.200;5.814;2023-06-10T09:41:44;6.60;;;3.95;;
59504;SDS011;45321;53.200;5.814;2023-06-10T09:44:14;6.45;;;3.85;;
59504;SDS011;45321;53.200;5.814;2023-06-10T09:46:42;7.70;;;4.07;;
59504;SDS011;45321;53.200;5.814;2023-06-10T09:49:10;8.82;;;4.65;;
59504;SDS011;45321;53.200;5.814;2023-06-10T09:51:36;7.13;;;4.28;;
59504;SDS011;45321;53.200;5.814;2023-06-10T09:54:02;9.80;;;4.88;;
59504;SDS011;45321;53.200;5.814;2023-06-10T09:56:33;7.80;;;5.25;;
59504;SDS011;45321;53.200;5.814;2023-06-10T09:58:59;9.20;;;6.10;;
59504;SDS011;45321;53.200;5.814;2023-06-10T10:01:30;9.02;;;6.45;;
59504;SDS011;45321;53.200;5.814;2023-06-10T10:03:56;8.23;;;4.80;;
59504;SDS011;45321;53.200;5.814;2023-06-10T10:06:22;10.07;;;4.47;;
59504;SDS011;45321;53.200;5.814;2023-06-10T10:08:49;8.15;;;4.55;;
59504;SDS011;45321;53.200;5.814;2023-06-10T10:11:22;9.85;;;5.20;;
59504;SDS011;45321;53.200;5.814;2023-06-10T10:13:49;7.75;;;3.72;;
59504;SDS011;45321;53.200;5.814;2023-06-10T10:16:17;8.15;;;4.95;;
59504;SDS011;45321;53.200;5.814;2023-06-10T10:18:52;9.98;;;6.88;;
59504;SDS011;45321;53.200;5.814;2023-06-10T10:21:23;8.02;;;5.82;;
59504;SDS011;45321;53.200;5.814;2023-06-10T10:24:09;6.35;;;3.65;;
59504;SDS011;45321;53.200;5.814;2023-06-10T10:26:45;9.20;;;6.03;;
59504;SDS011;45321;53.200;5.814;2023-06-10T10:29:16;9.77;;;6.82;;
59504;SDS011;45321;53.200;5.814;2023-06-10T10:31:52;11.77;;;4.40;;
59504;SDS011;45321;53.200;5.814;2023-06-10T10:34:24;9.10;;;5.55;;
59504;SDS011;45321;53.200;5.814;2023-06-10T10:37:09;7.97;;;3.60;;
59504;SDS011;45321;53.200;5.814;2023-06-10T10:39:34;6.22;;;4.10;;
59504;SDS011;45321;53.200;5.814;2023-06-10T10:42:01;9.85;;;5.90;;
59504;SDS011;45321;53.200;5.814;2023-06-10T10:44:29;7.50;;;4.80;;
59504;SDS011;45321;53.200;5.814;2023-06-10T10:46:55;8.63;;;5.65;;
59504;SDS011;45321;53.200;5.814;2023-06-10T10:49:22;14.32;;;6.63;;
59504;SDS011;45321;53.200;5.814;2023-06-10T10:54:34;8.77;;;3.78;;
59504;SDS011;45321;53.200;5.814;2023-06-10T10:57:20;7.23;;;4.63;;
59504;SDS011;45321;53.200;5.814;2023-06-10T11:02:34;7.88;;;5.15;;
59504;SDS011;45321;53.200;5.814;2023-06-10T11:05:03;9.48;;;3.97;;
59504;SDS011;45321;53.200;5.814;2023-06-10T11:07:31;6.60;;;3.67;;
59504;SDS011;45321;53.200;5.814;2023-06-10T11:09:58;7.75;;;4.00;;
59504;SDS011;45321;53.200;5.814;2023-06-10T11:15:29;8.13;;;4.30;;
59504;SDS011;45321;53.200;5.814;2023-06-10T11:18:08;6.55;;;3.97;;
59504;SDS011;45321;53.200;5.814;2023-06-10T11:31:21;9.43;;;3.35;;
59504;SDS011;45321;53.200;5.814;2023-06-10T11:33:57;5.40;;;3.38;;
59504;SDS011;45321;53.200;5.814;2023-06-10T11:36:31;5.25;;;3.40;;
59504;SDS011;45321;53.200;5.814;2023-06-10T11:39:05;5.88;;;3.40;;
59504;SDS011;45321;53.200;5.814;2023-06-10T11:41:31;4.57;;;2.90;;
59504;SDS011;45321;53.200;5.814;2023-06-10T11:44:02;6.10;;;2.70;;
59504;SDS011;45321;53.200;5.814;2023-06-10T11:46:29;7.10;;;2.88;;
59504;SDS011;45321;53.200;5.814;2023-06-10T11:48:56;15.48;;;3.50;;
59504;SDS011;45321;53.200;5.814;2023-06-10T11:51:26;11.02;;;4.68;;
59504;SDS011;45321;53.200;5.814;2023-06-10T11:53:54;6.50;;;4.20;;
59504;SDS011;45321;53.200;5.814;2023-06-10T11:56:24;4.13;;;3.00;;
59504;SDS011;45321;53.200;5.814;2023-06-10T11:58:52;7.07;;;3.42;;
59504;SDS011;45321;53.200;5.814;2023-06-10T12:01:23;4.55;;;2.92;;
59504;SDS011;45321;53.200;5.814;2023-06-10T12:03:59;9.30;;;3.33;;
59504;SDS011;45321;53.200;5.814;2023-06-10T12:06:25;5.18;;;3.13;;
59504;SDS011;45321;53.200;5.814;2023-06-10T12:08:52;7.43;;;3.00;;
59504;SDS011;45321;53.200;5.814;2023-06-10T12:11:18;8.68;;;3.10;;
59504;SDS011;45321;53.200;5.814;2023-06-10T12:13:46;4.32;;;2.90;;
59504;SDS011;45321;53.200;5.814;2023-06-10T12:16:15;5.75;;;3.13;;
59504;SDS011;45321;53.200;5.814;2023-06-10T12:18:45;6.55;;;3.10;;
59504;SDS011;45321;53.200;5.814;2023-06-10T12:21:18;6.00;;;3.22;;
59504;SDS011;45321;53.200;5.814;2023-06-10T12:24:05;9.68;;;3.17;;
59504;SDS011;45321;53.200;5.814;2023-06-10T12:26:35;10.93;;;3.65;;
59504;SDS011;45321;53.200;5.814;2023-06-10T12:29:01;5.97;;;3.30;;
59504;SDS011;45321;53.200;5.814;2023-06-10T12:34:30;9.52;;;3.95;;
59504;SDS011;45321;53.200;5.814;2023-06-10T12:37:04;9.57;;;3.92;;
59504;SDS011;45321;53.200;5.814;2023-06-10T12:39:32;10.80;;;3.63;;
59504;SDS011;45321;53.200;5.814;2023-06-10T12:41:58;8.75;;;3.40;;
59504;SDS011;45321;53.200;5.814;2023-06-10T12:44:28;11.68;;;4.22;;
59504;SDS011;45321;53.200;5.814;2023-06-10T12:46:55;9.80;;;3.92;;
59504;SDS011;45321;53.200;5.814;2023-06-10T12:49:21;12.23;;;3.53;;
59504;SDS011;45321;53.200;5.814;2023-06-10T12:51:47;10.40;;;4.15;;
59504;SDS011;45321;53.200;5.814;2023-06-10T12:54:13;13.20;;;4.60;;
59504;SDS011;45321;53.200;5.814;2023-06-10T12:56:39;12.00;;;3.67;;
59504;SDS011;45321;53.200;5.814;2023-06-10T12:59:04;11.77;;;4.35;;
59504;SDS011;45321;53.200;5.814;2023-06-10T13:01:31;14.35;;;4.38;;
59504;SDS011;45321;53.200;5.814;2023-06-10T13:03:58;15.52;;;4.75;;
59504;SDS011;45321;53.200;5.814;2023-06-10T13:06:23;10.90;;;3.90;;
59504;SDS011;45321;53.200;5.814;2023-06-10T13:08:49;7.93;;;3.72;;
59504;SDS011;45321;53.200;5.814;2023-06-10T13:11:16;10.68;;;4.05;;
59504;SDS011;45321;53.200;5.814;2023-06-10T13:13:41;12.23;;;4.25;;
59504;SDS011;45321;53.200;5.814;2023-06-10T13:16:08;13.20;;;4.18;;
59504;SDS011;45321;53.200;5.814;2023-06-10T13:18:33;16.77;;;4.25;;
59504;SDS011;45321;53.200;5.814;2023-06-10T13:21:05;13.68;;;4.40;;
59504;SDS011;45321;53.200;5.814;2023-06-10T13:23:31;13.48;;;4.18;;
59504;SDS011;45321;53.200;5.814;2023-06-10T13:25:57;14.60;;;4.32;;
59504;SDS011;45321;53.200;5.814;2023-06-10T13:28:23;8.25;;;4.05;;
59504;SDS011;45321;53.200;5.814;2023-06-10T13:30:49;12.23;;;4.75;;
59504;SDS011;45321;53.200;5.814;2023-06-10T13:33:15;16.15;;;4.15;;
59504;SDS011;45321;53.200;5.814;2023-06-10T13:35:40;11.23;;;4.07;;
59504;SDS011;45321;53.200;5.814;2023-06-10T13:38:06;13.68;;;3.83;;
59504;SDS011;45321;53.200;5.814;2023-06-10T13:40:32;9.02;;;3.58;;
59504;SDS011;45321;53.200;5.814;2023-06-10T13:42:58;7.35;;;3.40;;
59504;SDS011;45321;53.200;5.814;2023-06-10T13:45:24;11.75;;;3.58;;
59504;SDS011;45321;53.200;5.814;2023-06-10T13:47:50;7.47;;;4.10;;
59504;SDS011;45321;53.200;5.814;2023-06-10T13:50:16;8.38;;;2.88;;
59504;SDS011;45321;53.200;5.814;2023-06-10T13:52:42;5.65;;;3.17;;
59504;SDS011;45321;53.200;5.814;2023-06-10T13:55:08;9.95;;;3.35;;
59504;SDS011;45321;53.200;5.814;2023-06-10T13:57:34;11.25;;;3.63;;
59504;SDS011;45321;53.200;5.814;2023-06-10T14:00:00;12.20;;;3.78;;
59504;SDS011;45321;53.200;5.814;2023-06-10T14:02:25;11.68;;;3.33;;
59504;SDS011;45321;53.200;5.814;2023-06-10T14:04:51;9.40;;;3.05;;
59504;SDS011;45321;53.200;5.814;2023-06-10T14:07:17;8.27;;;3.47;;
59504;SDS011;45321;53.200;5.814;2023-06-10T14:09:42;9.38;;;3.10;;
59504;SDS011;45321;53.200;5.814;2023-06-10T14:12:08;10.45;;;3.30;;
59504;SDS011;45321;53.200;5.814;2023-06-10T14:14:35;10.25;;;3.20;;
59504;SDS011;45321;53.200;5.814;2023-06-10T14:17:01;13.20;;;3.25;;
59504;SDS011;45321;53.200;5.814;2023-06-10T14:19:28;9.30;;;3.22;;
59504;SDS011;45321;53.200;5.814;2023-06-10T14:21:54;9.88;;;2.92;;
59504;SDS011;45321;53.200;5.814;2023-06-10T14:24:20;10.00;;;3.08;;
59504;SDS011;45321;53.200;5.814;2023-06-10T14:26:46;12.43;;;4.35;;
59504;SDS011;45321;53.200;5.814;2023-06-10T14:29:12;8.02;;;3.40;;
59504;SDS011;45321;53.200;5.814;2023-06-10T14:31:42;7.00;;;3.00;;
59504;SDS011;45321;53.200;5.814;2023-06-10T14:34:11;8.70;;;3.40;;
59504;SDS011;45321;53.200;5.814;2023-06-10T14:36:36;9.80;;;3.75;;
59504;SDS011;45321;53.200;5.814;2023-06-10T14:39:02;9.90;;;3.20;;
59504;SDS011;45321;53.200;5.814;2023-06-10T14:41:28;10.30;;;3.03;;
59504;SDS011;45321;53.200;5.814;2023-06-10T14:43:54;9.95;;;3.08;;
59504;SDS011;45321;53.200;5.814;2023-06-10T14:46:20;11.80;;;3.22;;
59504;SDS011;45321;53.200;5.814;2023-06-10T14:48:46;7.90;;;3.47;;
59504;SDS011;45321;53.200;5.814;2023-06-10T14:51:12;9.48;;;3.60;;
59504;SDS011;45321;53.200;5.814;2023-06-10T14:53:37;11.77;;;4.13;;
59504;SDS011;45321;53.200;5.814;2023-06-10T14:56:03;8.50;;;3.55;;
59504;SDS011;45321;53.200;5.814;2023-06-10T14:58:29;12.95;;;4.15;;
59504;SDS011;45321;53.200;5.814;2023-06-10T15:00:55;8.15;;;3.47;;
59504;SDS011;45321;53.200;5.814;2023-06-10T15:03:21;7.85;;;3.20;;
59504;SDS011;45321;53.200;5.814;2023-06-10T15:05:46;14.93;;;4.40;;